BRE weather

Bremen Airport
Bremen, Bremen, Germany

Public forecast

Using degrees Celsius for public forecast. Weather courtesy of forecast.io.

METAR (pilot weather report)

Retrieved 2019/05/21 14:20 UTC (39 minutes ago):

EDDW 211420Z 31011KT 9999 FEW015 14/12 Q1010 TEMPO BKN012

TAF (pilot weather forecast)

Retrieved 2019/05/21 12:27 UTC (3 hours ago):

TAF TAF EDDW 211100Z 2112/2212 30012KT 9999 BKN006 TEMPO 2112/2113 32015G25KT 4000 -SHRA BKN012CB TEMPO 2113/2116 32015G25KT BKN012CB TEMPO 2116/2119 BKN012 TEMPO 2122/2205 3000 -DZ BR BKN004 TEMPO 2205/2212 30015G25KT BECMG 2206/2209 SCT020